Time;durP1;ratioP1;P1;durP2;ratioP2;P2;SDS_P1;SDS_P2;PMS_P1;PMS_P2;Temp;Humidity;BMP_temperature;BMP_pressure;BME280_temperature;BME280_humidity;BME280_pressure;Samples;Min_cycle;Max_cycle;Signal;HPM_P1;HPM_P2
2022/08/07 00:01:00;;;;;;;;;;;19.20;56.40;;;;;;5074453;28;20365;-57
2022/08/07 00:03:27;;;;;;;;;;;19.20;56.50;;;;;;5074696;28;20357;-55
2022/08/07 00:05:52;;;;;;;;;;;19.20;56.50;;;;;;5074847;28;19932;-58
2022/08/07 00:08:18;;;;;;;;;;;19.20;56.60;;;;;;5073585;28;19947;-58
2022/08/07 00:10:44;;;;;;;;;;;19.20;56.60;;;;;;5074866;28;19962;-57
2022/08/07 00:13:09;;;;;;;;;;;19.10;56.80;;;;;;5074173;28;19908;-58
2022/08/07 00:15:35;;;;;;;;;;;19.10;56.60;;;;;;5074492;28;19909;-57
2022/08/07 00:18:01;;;;;;;;;;;19.10;56.60;;;;;;5074343;28;19908;-57
2022/08/07 00:20:26;;;;;;;;;;;19.10;56.80;;;;;;5074593;28;19962;-56
2022/08/07 00:22:52;;;;;;;;;;;19.10;56.70;;;;;;5074054;28;20423;-57
2022/08/07 00:25:17;;;;;;;;;;;19.00;56.70;;;;;;5074407;28;19915;-58
2022/08/07 00:27:43;;;;;;;;;;;19.10;57.10;;;;;;5073719;28;20007;-56
2022/08/07 00:30:09;;;;;;;;;;;19.00;56.90;;;;;;5073871;28;20397;-58
2022/08/07 00:32:34;;;;;;;;;;;19.00;57.70;;;;;;5074175;28;19995;-58
2022/08/07 00:35:00;;;;;;;;;;;18.80;57.60;;;;;;5074146;28;19913;-57
2022/08/07 00:37:25;;;;;;;;;;;18.80;57.60;;;;;;5073380;28;19919;-58
2022/08/07 00:39:53;;;;;;;;;;;18.70;57.70;;;;;;5072952;28;19920;-58
2022/08/07 00:42:19;;;;;;;;;;;18.70;57.90;;;;;;5072530;28;19958;-58
2022/08/07 00:44:44;;;;;;;;;;;18.60;58.40;;;;;;5072501;28;19966;-58
2022/08/07 00:47:10;;;;;;;;;;;18.60;58.10;;;;;;5072783;28;19912;-58
2022/08/07 00:49:35;;;;;;;;;;;18.60;58.10;;;;;;5072515;28;19966;-57
2022/08/07 00:52:04;;;;;;;;;;;18.60;58.10;;;;;;5071829;28;19908;-58
2022/08/07 00:54:29;;;;;;;;;;;18.60;58.00;;;;;;5072413;28;20434;-57
2022/08/07 00:56:55;;;;;;;;;;;18.50;58.70;;;;;;5072098;28;19991;-57
2022/08/07 00:59:20;;;;;;;;;;;18.50;59.10;;;;;;5072236;28;19916;-58
2022/08/07 01:01:47;;;;;;;;;;;18.40;59.10;;;;;;5072579;28;19936;-57
2022/08/07 01:04:14;;;;;;;;;;;18.30;59.30;;;;;;5072304;28;20010;-57
2022/08/07 01:06:39;;;;;;;;;;;18.30;59.40;;;;;;5071980;28;19954;-58
2022/08/07 01:09:05;;;;;;;;;;;18.30;59.20;;;;;;5072163;28;19917;-58
2022/08/07 01:11:31;;;;;;;;;;;18.20;59.70;;;;;;5072117;28;20285;-57
2022/08/07 01:13:57;;;;;;;;;;;18.20;60.00;;;;;;5072033;28;19917;-58
2022/08/07 01:16:22;;;;;;;;;;;18.10;59.90;;;;;;5072685;28;19915;-57
2022/08/07 01:18:48;;;;;;;;;;;18.10;60.30;;;;;;5072092;28;20323;-57
2022/08/07 01:21:15;;;;;;;;;;;18.00;60.20;;;;;;5071614;28;19930;-58
2022/08/07 01:23:41;;;;;;;;;;;18.00;60.40;;;;;;5072496;28;19937;-58
2022/08/07 01:26:08;;;;;;;;;;;18.00;60.80;;;;;;5065788;28;19908;-58
2022/08/07 01:28:34;;;;;;;;;;;18.00;60.70;;;;;;5071647;28;19923;-58
2022/08/07 01:31:00;;;;;;;;;;;18.00;60.80;;;;;;5071957;28;19912;-58
2022/08/07 01:33:25;;;;;;;;;;;17.90;60.90;;;;;;5072236;28;20026;-56
2022/08/07 01:35:51;;;;;;;;;;;17.90;60.30;;;;;;5071690;28;19927;-59
2022/08/07 01:38:16;;;;;;;;;;;17.90;60.90;;;;;;5007489;28;1819465;-58
2022/08/07 01:40:43;;;;;;;;;;;17.90;60.90;;;;;;5072726;28;19927;-59
2022/08/07 01:43:09;;;;;;;;;;;17.80;61.10;;;;;;5073249;28;20053;-57
2022/08/07 01:45:35;;;;;;;;;;;17.80;61.00;;;;;;5072756;28;20384;-58
2022/08/07 01:48:01;;;;;;;;;;;17.80;61.30;;;;;;5072375;28;19952;-59
2022/08/07 01:50:28;;;;;;;;;;;17.80;60.80;;;;;;5072405;28;19912;-58
2022/08/07 01:52:55;;;;;;;;;;;17.80;60.90;;;;;;5072445;28;19916;-58
2022/08/07 01:55:25;;;;;;;;;;;17.80;61.70;;;;;;5072374;28;20393;-58
2022/08/07 01:57:52;;;;;;;;;;;17.80;61.20;;;;;;5072427;28;19950;-57
2022/08/07 02:00:18;;;;;;;;;;;17.70;61.40;;;;;;5072165;28;19912;-57
2022/08/07 02:02:46;;;;;;;;;;;17.70;61.60;;;;;;5072531;28;19915;-58
2022/08/07 02:05:13;;;;;;;;;;;17.70;62.00;;;;;;5071872;28;19991;-58
2022/08/07 02:07:41;;;;;;;;;;;17.70;62.30;;;;;;5071250;28;20018;-57
2022/08/07 02:10:07;;;;;;;;;;;17.60;62.40;;;;;;5071593;28;19909;-58
2022/08/07 02:12:36;;;;;;;;;;;17.60;62.00;;;;;;5072609;28;19915;-58
2022/08/07 02:15:03;;;;;;;;;;;17.60;62.30;;;;;;5072167;28;19982;-58
2022/08/07 02:17:29;;;;;;;;;;;17.60;61.90;;;;;;5071530;28;20011;-58
2022/08/07 02:19:56;;;;;;;;;;;17.60;62.40;;;;;;5071375;28;20358;-58
2022/08/07 02:22:23;;;;;;;;;;;17.50;63.30;;;;;;5071618;28;19928;-55
2022/08/07 02:24:50;;;;;;;;;;;17.50;63.20;;;;;;5072030;28;19951;-58
2022/08/07 02:27:18;;;;;;;;;;;17.50;62.70;;;;;;5071367;28;19922;-57
2022/08/07 02:29:44;;;;;;;;;;;17.50;62.90;;;;;;5071560;28;19944;-58
2022/08/07 02:32:10;;;;;;;;;;;17.40;62.90;;;;;;5071343;28;19962;-57
2022/08/07 02:34:36;;;;;;;;;;;17.40;63.60;;;;;;5071631;28;19908;-58
2022/08/07 02:37:04;;;;;;;;;;;17.40;63.00;;;;;;5071626;28;19995;-57
2022/08/07 02:39:30;;;;;;;;;;;17.40;63.60;;;;;;5071525;28;19943;-57
2022/08/07 02:41:56;;;;;;;;;;;17.40;63.40;;;;;;5071463;28;19939;-57
2022/08/07 02:44:23;;;;;;;;;;;17.40;63.40;;;;;;5072107;28;19916;-58
2022/08/07 02:46:52;;;;;;;;;;;17.30;63.70;;;;;;5071425;28;19943;-57
2022/08/07 02:49:18;;;;;;;;;;;17.30;64.10;;;;;;5071137;28;19916;-56
2022/08/07 02:51:43;;;;;;;;;;;17.20;64.50;;;;;;5071428;28;20258;-57
2022/08/07 02:54:10;;;;;;;;;;;17.20;64.30;;;;;;5071619;28;19916;-57
2022/08/07 02:56:37;;;;;;;;;;;17.20;64.20;;;;;;5071440;28;19919;-57
2022/08/07 02:59:04;;;;;;;;;;;17.20;64.40;;;;;;5071218;28;19908;-58
2022/08/07 03:01:30;;;;;;;;;;;17.20;64.40;;;;;;5071476;28;19909;-57
2022/08/07 03:03:56;;;;;;;;;;;17.20;64.80;;;;;;5071198;28;19919;-58
2022/08/07 03:06:22;;;;;;;;;;;17.10;65.70;;;;;;5071246;28;19916;-58
2022/08/07 03:08:48;;;;;;;;;;;17.10;64.70;;;;;;5071436;28;19939;-58
2022/08/07 03:11:14;;;;;;;;;;;17.10;65.20;;;;;;5071447;28;19909;-57
2022/08/07 03:13:40;;;;;;;;;;;17.00;65.40;;;;;;5070848;28;19915;-57
2022/08/07 03:16:06;;;;;;;;;;;17.00;65.30;;;;;;5070809;28;19908;-56
2022/08/07 03:18:31;;;;;;;;;;;17.00;65.60;;;;;;5071451;28;19913;-58
2022/08/07 03:20:57;;;;;;;;;;;17.00;65.40;;;;;;5071191;28;19927;-57
2022/08/07 03:23:24;;;;;;;;;;;17.00;65.60;;;;;;5070998;28;20285;-58
2022/08/07 03:25:50;;;;;;;;;;;16.90;66.40;;;;;;5071098;28;19909;-56
2022/08/07 03:28:16;;;;;;;;;;;16.90;66.40;;;;;;5071050;28;20395;-58
2022/08/07 03:30:42;;;;;;;;;;;16.80;66.70;;;;;;5070561;28;19992;-57
2022/08/07 03:33:09;;;;;;;;;;;16.80;66.20;;;;;;5070999;28;19930;-58
2022/08/07 03:35:35;;;;;;;;;;;16.80;66.30;;;;;;5070611;28;19940;-58
2022/08/07 03:38:02;;;;;;;;;;;16.80;66.30;;;;;;5070702;28;19966;-57
2022/08/07 03:40:28;;;;;;;;;;;16.80;66.30;;;;;;5071126;28;20015;-57
2022/08/07 03:42:54;;;;;;;;;;;16.80;66.10;;;;;;5070904;28;20357;-57
2022/08/07 03:45:21;;;;;;;;;;;16.80;66.80;;;;;;5070188;28;19908;-57
2022/08/07 03:47:47;;;;;;;;;;;16.70;66.80;;;;;;5070680;28;20391;-58
2022/08/07 03:50:12;;;;;;;;;;;16.70;67.00;;;;;;5070367;28;19913;-56
2022/08/07 03:52:39;;;;;;;;;;;16.60;67.70;;;;;;5071054;28;19909;-58
2022/08/07 03:55:05;;;;;;;;;;;16.60;67.90;;;;;;5070766;28;19954;-57
2022/08/07 03:57:31;;;;;;;;;;;16.60;68.20;;;;;;5070516;28;19955;-57
2022/08/07 03:59:56;;;;;;;;;;;16.60;68.00;;;;;;5070537;28;20103;-58
2022/08/07 04:02:22;;;;;;;;;;;16.50;67.90;;;;;;5070569;28;19908;-58
2022/08/07 04:04:48;;;;;;;;;;;16.60;68.00;;;;;;5070258;28;19916;-58
2022/08/07 04:07:17;;;;;;;;;;;16.50;68.30;;;;;;5070803;28;19915;-58
2022/08/07 04:09:44;;;;;;;;;;;16.50;68.40;;;;;;5064795;28;19934;-58
2022/08/07 04:12:10;;;;;;;;;;;16.40;68.80;;;;;;5070649;28;19947;-58
2022/08/07 04:14:35;;;;;;;;;;;16.40;68.10;;;;;;5063879;28;19959;-58
2022/08/07 04:17:01;;;;;;;;;;;16.40;69.00;;;;;;5070196;28;19909;-55
2022/08/07 04:19:27;;;;;;;;;;;16.30;70.00;;;;;;5070578;28;19916;-57
2022/08/07 04:21:53;;;;;;;;;;;16.30;69.50;;;;;;5070538;28;19913;-57
2022/08/07 04:24:18;;;;;;;;;;;16.20;70.30;;;;;;5071024;28;19909;-59
2022/08/07 04:26:44;;;;;;;;;;;16.20;69.80;;;;;;5070345;28;19916;-58
2022/08/07 04:29:09;;;;;;;;;;;16.20;69.80;;;;;;5069793;28;19916;-56
2022/08/07 04:31:38;;;;;;;;;;;16.20;69.50;;;;;;5053813;28;20392;-58
2022/08/07 04:34:05;;;;;;;;;;;16.30;69.40;;;;;;5073994;28;19916;-58
2022/08/07 04:36:30;;;;;;;;;;;16.30;69.60;;;;;;5074138;28;19908;-57
2022/08/07 04:38:56;;;;;;;;;;;16.30;69.80;;;;;;5074179;28;19924;-57
2022/08/07 04:41:21;;;;;;;;;;;16.20;70.20;;;;;;5073662;28;20359;-59
2022/08/07 04:43:49;;;;;;;;;;;16.20;70.40;;;;;;5073764;28;20380;-57
2022/08/07 04:46:27;;;;;;;;;;;16.30;70.20;;;;;;5073630;28;19913;-57
2022/08/07 04:49:11;;;;;;;;;;;16.30;69.70;;;;;;5073998;28;19963;-58
2022/08/07 04:51:50;;;;;;;;;;;16.30;69.50;;;;;;5067875;28;19943;-56
2022/08/07 04:54:15;;;;;;;;;;;16.30;69.10;;;;;;5068879;28;20472;-55
2022/08/07 04:56:43;;;;;;;;;;;16.40;68.90;;;;;;5073866;28;19999;-56
2022/08/07 04:59:15;;;;;;;;;;;16.30;70.00;;;;;;5073038;28;19962;-57
2022/08/07 05:01:58;;;;;;;;;;;16.30;69.30;;;;;;5055616;28;19930;-58
2022/08/07 05:04:44;;;;;;;;;;;16.30;69.70;;;;;;5073922;28;19923;-58
2022/08/07 05:07:18;;;;;;;;;;;16.40;70.40;;;;;;5073189;28;19923;-58
2022/08/07 05:09:53;;;;;;;;;;;16.40;69.70;;;;;;5073399;28;19913;-56
2022/08/07 05:12:22;;;;;;;;;;;16.40;70.30;;;;;;5073003;28;19935;-57
2022/08/07 05:14:50;;;;;;;;;;;16.40;70.80;;;;;;5073977;28;19943;-57
2022/08/07 05:17:17;;;;;;;;;;;16.40;70.00;;;;;;5073247;28;20010;-57
2022/08/07 05:19:48;;;;;;;;;;;16.50;70.70;;;;;;5073172;28;19909;-58
2022/08/07 05:22:14;;;;;;;;;;;16.50;70.40;;;;;;5073186;28;19999;-57
2022/08/07 05:24:41;;;;;;;;;;;16.50;70.80;;;;;;5073330;28;19978;-57
2022/08/07 05:27:08;;;;;;;;;;;16.50;70.70;;;;;;5072334;28;20007;-57
2022/08/07 05:29:37;;;;;;;;;;;16.50;70.60;;;;;;5055187;28;20430;-58
2022/08/07 05:32:05;;;;;;;;;;;16.50;70.90;;;;;;5072815;28;19970;-58
2022/08/07 05:34:30;;;;;;;;;;;16.60;70.80;;;;;;5072639;28;20343;-57
2022/08/07 05:36:56;;;;;;;;;;;16.60;71.30;;;;;;5073120;28;19917;-58
2022/08/07 05:39:22;;;;;;;;;;;16.60;70.50;;;;;;5072927;28;20339;-58
2022/08/07 05:41:49;;;;;;;;;;;16.60;70.80;;;;;;5072207;28;20563;-56
2022/08/07 05:44:18;;;;;;;;;;;16.60;70.80;;;;;;5072021;28;19916;-57
2022/08/07 05:46:46;;;;;;;;;;;16.60;70.80;;;;;;5072547;28;20023;-57
2022/08/07 05:49:12;;;;;;;;;;;16.70;70.70;;;;;;5072677;28;19923;-57
2022/08/07 05:51:38;;;;;;;;;;;16.70;70.60;;;;;;5072465;28;19913;-58
2022/08/07 05:54:03;;;;;;;;;;;16.70;71.00;;;;;;5073065;28;19909;-58
2022/08/07 05:56:30;;;;;;;;;;;16.70;71.20;;;;;;5072030;28;19920;-57
2022/08/07 05:58:57;;;;;;;;;;;16.70;71.30;;;;;;5072578;28;19960;-57
2022/08/07 06:01:25;;;;;;;;;;;16.70;71.00;;;;;;5054508;28;19961;-59
2022/08/07 06:03:52;;;;;;;;;;;16.70;71.40;;;;;;5072227;28;19919;-57
2022/08/07 06:06:18;;;;;;;;;;;16.70;71.60;;;;;;5072344;28;20007;-57
2022/08/07 06:08:44;;;;;;;;;;;16.70;71.40;;;;;;5071938;28;19916;-57
2022/08/07 06:11:10;;;;;;;;;;;16.70;71.30;;;;;;5071941;28;19947;-57
2022/08/07 06:13:36;;;;;;;;;;;16.70;71.00;;;;;;5072276;28;19912;-57
2022/08/07 06:16:02;;;;;;;;;;;16.70;71.20;;;;;;5072004;28;19908;-56
2022/08/07 06:18:29;;;;;;;;;;;16.80;71.20;;;;;;5072380;28;19912;-56
2022/08/07 06:20:54;;;;;;;;;;;16.90;71.10;;;;;;5071940;28;19909;-58
2022/08/07 06:23:20;;;;;;;;;;;16.90;71.20;;;;;;5072215;28;19931;-56
2022/08/07 06:25:45;;;;;;;;;;;16.90;70.70;;;;;;5086795;28;19956;-57
2022/08/07 06:28:11;;;;;;;;;;;17.00;70.80;;;;;;5071658;28;19971;-58
2022/08/07 06:30:37;;;;;;;;;;;17.00;70.30;;;;;;5071981;28;19908;-58
2022/08/07 06:33:03;;;;;;;;;;;17.10;70.60;;;;;;5072061;28;19966;-57
2022/08/07 06:35:29;;;;;;;;;;;17.20;70.50;;;;;;5071818;28;19969;-57
2022/08/07 06:37:56;;;;;;;;;;;17.20;70.40;;;;;;5071685;28;19916;-57
2022/08/07 06:40:22;;;;;;;;;;;17.20;70.30;;;;;;5070982;28;19912;-57
2022/08/07 06:42:48;;;;;;;;;;;17.30;70.10;;;;;;5071550;28;19915;-58
2022/08/07 06:45:15;;;;;;;;;;;17.30;70.20;;;;;;5071912;28;20385;-57
2022/08/07 06:47:41;;;;;;;;;;;17.40;70.10;;;;;;5071671;28;20003;-57
2022/08/07 06:50:07;;;;;;;;;;;17.40;69.80;;;;;;5071455;28;20011;-57
2022/08/07 06:52:34;;;;;;;;;;;17.50;70.10;;;;;;5071672;28;19961;-57
2022/08/07 06:55:00;;;;;;;;;;;17.50;69.70;;;;;;5052448;28;19908;-57
2022/08/07 06:57:28;;;;;;;;;;;17.50;69.80;;;;;;5071827;28;19916;-57
2022/08/07 06:59:54;;;;;;;;;;;17.50;69.90;;;;;;5071670;28;19916;-57
2022/08/07 07:02:20;;;;;;;;;;;17.60;70.30;;;;;;5071258;28;19909;-57
2022/08/07 07:04:46;;;;;;;;;;;17.70;69.50;;;;;;5071194;28;19913;-57
2022/08/07 07:07:12;;;;;;;;;;;17.70;69.40;;;;;;5071482;28;19915;-58
2022/08/07 07:09:43;;;;;;;;;;;17.70;69.40;;;;;;5064415;28;20396;-58
2022/08/07 07:12:21;;;;;;;;;;;17.80;69.20;;;;;;5065206;28;19912;-57
2022/08/07 07:14:46;;;;;;;;;;;17.80;69.10;;;;;;5070938;28;20368;-57
2022/08/07 07:17:19;;;;;;;;;;;17.90;69.00;;;;;;5071124;28;19908;-57
2022/08/07 07:19:47;;;;;;;;;;;17.90;69.00;;;;;;5070890;28;19912;-58
2022/08/07 07:22:14;;;;;;;;;;;18.00;68.90;;;;;;5070772;28;20011;-59
2022/08/07 07:24:40;;;;;;;;;;;18.10;68.40;;;;;;5070644;28;20292;-58
2022/08/07 07:27:07;;;;;;;;;;;18.10;68.30;;;;;;5071400;28;19915;-58
2022/08/07 07:29:35;;;;;;;;;;;18.20;68.50;;;;;;5071067;28;20011;-59
2022/08/07 07:32:01;;;;;;;;;;;18.20;67.80;;;;;;5071344;28;19916;-58
2022/08/07 07:34:28;;;;;;;;;;;18.20;68.20;;;;;;5069656;28;20356;-55
2022/08/07 07:36:55;;;;;;;;;;;18.30;68.10;;;;;;5070475;28;20280;-56
2022/08/07 07:39:22;;;;;;;;;;;18.40;67.60;;;;;;5067567;28;19921;-56
2022/08/07 07:41:49;;;;;;;;;;;18.30;67.60;;;;;;5070789;28;19935;-59
2022/08/07 07:44:19;;;;;;;;;;;18.40;68.00;;;;;;5068609;28;19920;-59
2022/08/07 07:46:45;;;;;;;;;;;18.50;68.00;;;;;;5068766;28;19913;-59
2022/08/07 07:49:13;;;;;;;;;;;18.50;67.60;;;;;;5070803;28;19938;-59
2022/08/07 07:51:40;;;;;;;;;;;18.60;67.40;;;;;;5069923;28;19919;-59
2022/08/07 07:54:06;;;;;;;;;;;18.60;67.20;;;;;;5070745;28;20369;-59
2022/08/07 07:56:32;;;;;;;;;;;18.70;67.40;;;;;;5068011;28;19921;-58
2022/08/07 07:58:59;;;;;;;;;;;18.80;67.10;;;;;;5069804;28;19938;-58
2022/08/07 08:01:25;;;;;;;;;;;18.90;66.90;;;;;;5068960;28;19917;-59
2022/08/07 08:03:52;;;;;;;;;;;18.90;66.10;;;;;;5070732;28;19920;-60
2022/08/07 08:06:18;;;;;;;;;;;19.00;66.40;;;;;;5070814;28;19909;-58
2022/08/07 08:08:44;;;;;;;;;;;19.00;65.90;;;;;;5072964;28;20300;-59
2022/08/07 08:11:10;;;;;;;;;;;19.10;65.40;;;;;;5074287;28;20071;-59
2022/08/07 08:13:41;;;;;;;;;;;19.10;65.50;;;;;;5074666;28;19976;-59
2022/08/07 08:16:07;;;;;;;;;;;19.20;65.60;;;;;;5074567;28;19919;-58
2022/08/07 08:18:34;;;;;;;;;;;19.30;65.40;;;;;;5070831;28;19917;-58
2022/08/07 08:21:00;;;;;;;;;;;19.30;65.00;;;;;;5062580;28;19920;-59
2022/08/07 08:28:59;;;;;;;;;;;19.40;64.20;;;;;;5071752;28;19975;-57
2022/08/07 08:31:27;;;;;;;;;;;19.50;64.70;;;;;;5072461;28;19916;-59
2022/08/07 08:33:54;;;;;;;;;;;19.50;64.20;;;;;;5072132;28;19924;-60
2022/08/07 08:36:22;;;;;;;;;;;19.60;64.00;;;;;;5069262;28;20419;-59
2022/08/07 08:38:48;;;;;;;;;;;19.70;63.30;;;;;;5071973;28;20062;-58
2022/08/07 08:41:23;;;;;;;;;;;19.70;63.20;;;;;;5072226;28;19913;-59
2022/08/07 08:43:49;;;;;;;;;;;19.80;63.20;;;;;;5071701;28;20452;-60
2022/08/07 08:46:17;;;;;;;;;;;19.80;63.00;;;;;;5072021;28;19916;-59
2022/08/07 08:48:43;;;;;;;;;;;19.90;62.80;;;;;;5071413;28;19921;-59
2022/08/07 08:51:29;;;;;;;;;;;19.90;62.00;;;;;;5071351;28;19913;-59
2022/08/07 08:54:14;;;;;;;;;;;20.00;61.60;;;;;;5070512;28;19950;-58
2022/08/07 08:56:44;;;;;;;;;;;20.00;62.00;;;;;;5068431;28;19919;-60
2022/08/07 08:59:19;;;;;;;;;;;20.10;61.60;;;;;;5071919;28;19912;-58
2022/08/07 09:02:02;;;;;;;;;;;20.20;61.20;;;;;;5068735;28;19993;-58
2022/08/07 09:04:35;;;;;;;;;;;20.20;61.10;;;;;;5069997;28;19919;-58
2022/08/07 09:07:13;;;;;;;;;;;20.20;60.10;;;;;;5070973;28;20464;-58
2022/08/07 09:09:53;;;;;;;;;;;20.30;60.00;;;;;;5067869;28;19924;-58
2022/08/07 09:12:34;;;;;;;;;;;20.30;59.90;;;;;;5071117;28;19917;-59
2022/08/07 09:15:02;;;;;;;;;;;20.30;59.90;;;;;;5070500;28;20014;-58
2022/08/07 09:17:38;;;;;;;;;;;20.40;60.20;;;;;;5070074;28;20316;-58
2022/08/07 09:20:20;;;;;;;;;;;20.50;60.00;;;;;;5070688;28;19912;-59
2022/08/07 09:23:00;;;;;;;;;;;20.60;59.60;;;;;;5068623;28;19916;-59
2022/08/07 09:25:34;;;;;;;;;;;20.60;58.60;;;;;;5071258;28;19912;-58
2022/08/07 09:28:03;;;;;;;;;;;20.60;58.50;;;;;;5071115;28;21008;-59
2022/08/07 09:30:55;;;;;;;;;;;20.60;58.60;;;;;;5071309;28;19916;-57
2022/08/07 09:33:39;;;;;;;;;;;20.70;58.00;;;;;;5069872;28;19912;-58
2022/08/07 09:36:17;;;;;;;;;;;20.70;57.60;;;;;;5070273;28;19913;-58
2022/08/07 09:38:52;;;;;;;;;;;20.80;57.70;;;;;;5067271;28;20391;-57
2022/08/07 09:41:21;;;;;;;;;;;20.80;56.70;;;;;;5085859;28;20414;-58
2022/08/07 09:44:07;;;;;;;;;;;20.90;57.00;;;;;;5070748;28;20372;-57
2022/08/07 09:46:36;;;;;;;;;;;20.90;57.00;;;;;;5070765;28;19918;-57
2022/08/07 09:49:14;;;;;;;;;;;21.00;56.60;;;;;;5069559;28;19978;-58
2022/08/07 09:51:40;;;;;;;;;;;21.00;56.90;;;;;;5066971;28;19916;-56
2022/08/07 09:54:11;;;;;;;;;;;21.10;56.90;;;;;;5070088;28;20448;-59
2022/08/07 09:56:52;;;;;;;;;;;21.10;56.60;;;;;;5066557;28;19912;-57
2022/08/07 09:59:29;;;;;;;;;;;21.10;56.70;;;;;;5044140;28;20014;-58
2022/08/07 10:02:26;;;;;;;;;;;21.10;56.30;;;;;;5069580;28;20381;-59
2022/08/07 10:05:01;;;;;;;;;;;21.20;56.40;;;;;;5067775;28;19912;-56
2022/08/07 10:07:43;;;;;;;;;;;21.20;56.60;;;;;;5068776;28;19917;-57
2022/08/07 10:10:27;;;;;;;;;;;21.20;56.60;;;;;;5069330;28;19982;-59
2022/08/07 10:12:53;;;;;;;;;;;21.30;56.80;;;;;;5067564;28;19913;-56
2022/08/07 10:15:21;;;;;;;;;;;21.30;56.40;;;;;;5069362;28;19973;-58
2022/08/07 10:18:02;;;;;;;;;;;21.30;56.60;;;;;;5069248;28;19969;-58
2022/08/07 10:20:46;;;;;;;;;;;21.40;56.00;;;;;;5068334;28;20023;-58
2022/08/07 10:23:31;;;;;;;;;;;21.40;57.00;;;;;;5069612;28;19916;-58
2022/08/07 10:26:06;;;;;;;;;;;21.40;56.10;;;;;;5069628;28;19961;-58
2022/08/07 10:28:31;;;;;;;;;;;21.50;56.60;;;;;;5069099;28;19932;-58
2022/08/07 10:31:00;;;;;;;;;;;21.60;56.50;;;;;;5067407;28;19913;-59
2022/08/07 10:33:31;;;;;;;;;;;21.60;56.30;;;;;;5068010;28;19921;-58
2022/08/07 10:36:00;;;;;;;;;;;21.70;55.10;;;;;;5069548;28;20262;-57
2022/08/07 10:38:28;;;;;;;;;;;21.70;56.00;;;;;;5069492;28;19928;-58
2022/08/07 10:40:59;;;;;;;;;;;21.80;54.70;;;;;;5069109;28;20658;-58
2022/08/07 10:43:28;;;;;;;;;;;21.80;54.60;;;;;;5067690;28;20027;-58
2022/08/07 10:46:01;;;;;;;;;;;21.80;54.70;;;;;;5068890;28;19960;-58
2022/08/07 10:48:35;;;;;;;;;;;21.80;54.50;;;;;;5068078;28;19947;-58
2022/08/07 10:51:06;;;;;;;;;;;21.70;54.50;;;;;;5068555;28;19920;-59
2022/08/07 10:53:42;;;;;;;;;;;21.80;54.10;;;;;;5069256;28;20342;-58
2022/08/07 10:56:13;;;;;;;;;;;21.80;54.30;;;;;;5069065;28;19912;-59
2022/08/07 10:58:46;;;;;;;;;;;21.80;54.40;;;;;;5067504;28;19975;-58
2022/08/07 11:01:11;;;;;;;;;;;21.90;54.90;;;;;;5068349;28;20015;-59
2022/08/07 11:03:44;;;;;;;;;;;21.90;54.40;;;;;;5068085;28;20002;-57
2022/08/07 11:06:09;;;;;;;;;;;22.00;53.50;;;;;;5041865;28;19935;-58
2022/08/07 11:08:53;;;;;;;;;;;22.00;54.20;;;;;;5069028;28;19921;-59
2022/08/07 11:11:19;;;;;;;;;;;22.00;53.60;;;;;;5069450;28;20442;-59
2022/08/07 11:13:47;;;;;;;;;;;22.10;54.30;;;;;;5068692;28;19916;-58
2022/08/07 11:16:19;;;;;;;;;;;22.10;53.80;;;;;;5067043;28;19921;-58
2022/08/07 11:18:44;;;;;;;;;;;22.10;54.10;;;;;;5068138;28;19916;-57
2022/08/07 11:21:23;;;;;;;;;;;22.10;53.00;;;;;;5067956;28;20360;-57
2022/08/07 11:24:02;;;;;;;;;;;22.20;53.30;;;;;;5065823;28;19935;-58
2022/08/07 11:26:48;;;;;;;;;;;22.20;53.50;;;;;;5068083;28;19916;-58
2022/08/07 11:29:33;;;;;;;;;;;22.30;53.70;;;;;;5067023;28;19927;-58
2022/08/07 11:32:10;;;;;;;;;;;22.30;53.60;;;;;;5068429;28;19917;-59
2022/08/07 11:34:45;;;;;;;;;;;22.30;54.00;;;;;;5068992;28;19999;-58
2022/08/07 11:37:29;;;;;;;;;;;22.40;54.20;;;;;;5066338;28;20013;-58
2022/08/07 11:39:57;;;;;;;;;;;22.40;53.70;;;;;;5068692;28;19920;-59
2022/08/07 11:42:44;;;;;;;;;;;22.50;53.70;;;;;;5072733;28;19913;-59
2022/08/07 11:45:16;;;;;;;;;;;22.50;53.70;;;;;;5071921;28;19935;-59
2022/08/07 11:47:51;;;;;;;;;;;22.50;53.90;;;;;;5069452;28;19920;-59
2022/08/07 11:50:26;;;;;;;;;;;22.50;54.10;;;;;;5071495;28;19928;-59
2022/08/07 11:53:02;;;;;;;;;;;22.60;54.10;;;;;;5072187;28;20278;-59
2022/08/07 11:55:28;;;;;;;;;;;22.70;54.50;;;;;;5070843;28;19966;-59
2022/08/07 11:58:20;;;;;;;;;;;22.70;54.30;;;;;;5072541;28;20830;-59
2022/08/07 12:00:55;;;;;;;;;;;22.70;53.80;;;;;;5066169;28;19995;-58
2022/08/07 12:03:40;;;;;;;;;;;22.70;53.30;;;;;;5072160;28;20352;-59
2022/08/07 12:06:11;;;;;;;;;;;22.70;53.60;;;;;;5072430;28;19999;-59
2022/08/07 12:08:41;;;;;;;;;;;22.70;53.20;;;;;;5072321;28;20423;-59
2022/08/07 12:11:33;;;;;;;;;;;22.70;53.10;;;;;;5072002;28;19916;-59
2022/08/07 12:14:07;;;;;;;;;;;22.70;53.30;;;;;;5067775;28;20406;-58
2022/08/07 12:16:40;;;;;;;;;;;22.80;52.70;;;;;;5072226;28;19919;-59
2022/08/07 12:19:12;;;;;;;;;;;22.90;52.80;;;;;;5072028;28;19999;-58
2022/08/07 12:21:57;;;;;;;;;;;23.00;52.80;;;;;;5070406;28;19924;-59
2022/08/07 12:25:51;;;;;;;;;;;23.00;52.90;;;;;;5070031;28;19916;-61
2022/08/07 12:27:32;;;;;;;;;;;23.00;52.90;;;;;;5070421;28;19942;-59
2022/08/07 12:30:05;;;;;;;;;;;23.20;52.20;;;;;;5071951;28;19916;-59
2022/08/07 12:32:46;;;;;;;;;;;23.10;51.30;;;;;;5036789;28;20047;-59
2022/08/07 12:35:12;;;;;;;;;;;23.10;51.40;;;;;;5071596;28;20301;-59
2022/08/07 12:37:39;;;;;;;;;;;23.10;51.80;;;;;;5071663;28;20430;-59
2022/08/07 12:40:06;;;;;;;;;;;23.10;51.80;;;;;;5071596;28;19967;-58
2022/08/07 12:42:31;;;;;;;;;;;23.20;51.90;;;;;;5071680;28;19955;-59
2022/08/07 12:44:59;;;;;;;;;;;23.10;51.30;;;;;;5071106;28;19959;-59
2022/08/07 12:47:32;;;;;;;;;;;23.20;51.70;;;;;;5070549;28;20365;-60
2022/08/07 12:49:58;;;;;;;;;;;23.20;51.30;;;;;;5070254;28;19944;-58
2022/08/07 12:52:42;;;;;;;;;;;23.30;51.50;;;;;;5071311;28;20390;-59
2022/08/07 12:55:12;;;;;;;;;;;23.40;52.00;;;;;;5071230;28;20003;-59
2022/08/07 12:57:39;;;;;;;;;;;23.40;51.50;;;;;;5067739;28;19913;-58
2022/08/07 13:00:07;;;;;;;;;;;23.40;51.60;;;;;;5070904;28;19947;-59
2022/08/07 13:03:08;;;;;;;;;;;23.50;51.30;;;;;;5072100;28;19912;-58
2022/08/07 13:05:36;;;;;;;;;;;23.50;51.60;;;;;;4998140;28;19917;-59
2022/08/07 13:08:15;;;;;;;;;;;23.50;51.60;;;;;;5000261;28;19929;-59
2022/08/07 13:10:59;;;;;;;;;;;23.60;51.40;;;;;;5003668;28;19917;-57
2022/08/07 13:13:40;;;;;;;;;;;23.70;51.20;;;;;;5000967;28;19913;-59
2022/08/07 13:16:10;;;;;;;;;;;23.70;51.20;;;;;;5001584;28;19913;-59
2022/08/07 13:18:42;;;;;;;;;;;23.80;51.30;;;;;;4996308;28;19913;-58
2022/08/07 13:21:17;;;;;;;;;;;23.80;49.60;;;;;;5002646;28;19925;-58
2022/08/07 13:23:48;;;;;;;;;;;23.80;49.60;;;;;;5000127;28;20481;-58
2022/08/07 13:26:32;;;;;;;;;;;23.80;49.20;;;;;;4999414;28;19964;-59
2022/08/07 13:29:02;;;;;;;;;;;23.80;49.50;;;;;;5002132;28;19932;-58
2022/08/07 13:31:29;;;;;;;;;;;23.80;49.70;;;;;;5005890;28;19921;-58
2022/08/07 13:34:01;;;;;;;;;;;23.80;50.20;;;;;;5001484;28;19918;-58
2022/08/07 13:36:30;;;;;;;;;;;23.90;50.00;;;;;;5004685;28;19988;-58
2022/08/07 13:39:11;;;;;;;;;;;24.00;49.70;;;;;;5017804;28;19928;-59
2022/08/07 13:41:39;;;;;;;;;;;24.10;50.10;;;;;;5070209;28;19982;-58
2022/08/07 13:44:08;;;;;;;;;;;24.20;49.50;;;;;;5069902;28;19915;-58
2022/08/07 13:46:36;;;;;;;;;;;24.20;49.40;;;;;;5069882;28;20373;-59
2022/08/07 13:49:04;;;;;;;;;;;24.20;49.70;;;;;;5070238;28;19923;-59
2022/08/07 13:51:30;;;;;;;;;;;24.30;49.40;;;;;;5085953;28;19917;-59
2022/08/07 13:54:02;;;;;;;;;;;24.20;49.30;;;;;;5069708;28;19908;-58
2022/08/07 13:56:28;;;;;;;;;;;24.20;49.60;;;;;;5067791;28;19920;-58
2022/08/07 13:59:00;;;;;;;;;;;24.20;49.70;;;;;;5070252;28;19919;-57
2022/08/07 14:01:31;;;;;;;;;;;24.20;49.10;;;;;;5068875;28;19916;-58
2022/08/07 14:03:58;;;;;;;;;;;24.30;49.30;;;;;;5084102;28;19923;-57
2022/08/07 14:06:30;;;;;;;;;;;24.20;49.40;;;;;;5067868;28;19924;-58
2022/08/07 14:08:56;;;;;;;;;;;24.30;49.40;;;;;;5069112;28;19920;-59
2022/08/07 14:11:24;;;;;;;;;;;24.30;49.00;;;;;;5069911;28;19984;-57
2022/08/07 14:13:54;;;;;;;;;;;24.30;49.00;;;;;;5070086;28;20395;-56
2022/08/07 14:16:23;;;;;;;;;;;24.30;48.30;;;;;;5069917;28;19966;-58
2022/08/07 14:18:50;;;;;;;;;;;24.30;49.00;;;;;;5069958;28;19966;-57
2022/08/07 14:21:16;;;;;;;;;;;24.30;49.00;;;;;;5068568;28;19920;-58
2022/08/07 14:23:47;;;;;;;;;;;24.40;48.60;;;;;;5069586;28;19912;-58
2022/08/07 14:26:16;;;;;;;;;;;24.40;47.80;;;;;;5069421;28;19919;-57
2022/08/07 14:28:43;;;;;;;;;;;24.40;47.80;;;;;;5066190;28;19938;-57
2022/08/07 14:31:09;;;;;;;;;;;24.40;48.50;;;;;;5069213;28;19955;-58
2022/08/07 14:33:35;;;;;;;;;;;24.50;49.60;;;;;;5069390;28;19924;-57
2022/08/07 14:36:01;;;;;;;;;;;24.50;48.60;;;;;;5069596;28;19927;-58